Time;durP1;ratioP1;P1;durP2;ratioP2;P2;SDS_P1;SDS_P2;PMS_P1;PMS_P2;Temp;Humidity;BMP_temperature;BMP_pressure;BME280_temperature;BME280_humidity;BME280_pressure;Samples;Min_cycle;Max_cycle;Signal;HPM_P1;HPM_P2
2023/04/08 00:02:01;;;;;;;9.52;8.57;;;;;;;;;;5081735;28;20243;-68
2023/04/08 00:04:27;;;;;;;9.60;8.70;;;;;;;;;;5082057;28;20203;-68
2023/04/08 00:06:53;;;;;;;9.35;8.32;;;;;;;;;;5081732;28;20193;-68
2023/04/08 00:09:21;;;;;;;8.85;8.05;;;;;;;;;;5082091;28;20197;-69
2023/04/08 00:11:47;;;;;;;9.95;8.95;;;;;;;;;;5081884;28;20210;-69
2023/04/08 00:14:13;;;;;;;9.95;9.02;;;;;;;;;;5081689;28;20512;-69
2023/04/08 00:16:40;;;;;;;10.27;9.32;;;;;;;;;;5081766;28;20212;-69
2023/04/08 00:19:06;;;;;;;10.32;9.38;;;;;;;;;;5081595;28;20196;-69
2023/04/08 00:21:32;;;;;;;9.38;8.48;;;;;;;;;;5081834;28;20504;-68
2023/04/08 00:23:58;;;;;;;10.63;9.57;;;;;;;;;;5081847;28;20491;-68
2023/04/08 00:26:26;;;;;;;11.18;10.07;;;;;;;;;;5081941;28;20404;-68
2023/04/08 00:28:52;;;;;;;11.73;10.52;;;;;;;;;;5081565;28;20216;-68
2023/04/08 00:31:19;;;;;;;11.75;10.55;;;;;;;;;;5081452;28;20224;-68
2023/04/08 00:33:45;;;;;;;11.43;10.23;;;;;;;;;;5081957;28;20253;-68
2023/04/08 00:36:11;;;;;;;11.13;9.93;;;;;;;;;;5082297;28;20495;-68
2023/04/08 00:38:38;;;;;;;11.45;10.27;;;;;;;;;;5085718;28;20200;-68
2023/04/08 00:41:04;;;;;;;11.45;10.25;;;;;;;;;;5085365;28;20503;-68
2023/04/08 00:43:31;;;;;;;12.20;10.23;;;;;;;;;;5085545;28;20423;-68
2023/04/08 00:45:58;;;;;;;11.27;10.15;;;;;;;;;;5085387;28;20397;-68
2023/04/08 00:48:24;;;;;;;11.05;10.00;;;;;;;;;;5085661;28;20263;-68
2023/04/08 00:50:51;;;;;;;11.45;10.35;;;;;;;;;;5085126;28;20263;-68
2023/04/08 00:53:18;;;;;;;11.40;10.25;;;;;;;;;;5085339;28;20199;-68
2023/04/08 00:55:45;;;;;;;10.95;9.85;;;;;;;;;;5085470;28;20203;-68
2023/04/08 00:58:11;;;;;;;10.75;9.73;;;;;;;;;;5085665;28;20200;-68
2023/04/08 01:00:41;;;;;;;12.00;10.80;;;;;;;;;;5085080;28;20512;-68
2023/04/08 01:03:12;;;;;;;12.45;11.15;;;;;;;;;;5085315;28;20201;-68
2023/04/08 01:05:42;;;;;;;11.45;10.05;;;;;;;;;;5085490;28;20407;-69
2023/04/08 01:08:10;;;;;;;11.13;9.90;;;;;;;;;;5084973;28;20204;-68
2023/04/08 01:10:37;;;;;;;12.38;11.05;;;;;;;;;;5084917;28;20196;-68
2023/04/08 01:13:04;;;;;;;13.80;11.35;;;;;;;;;;5085115;28;20207;-68
2023/04/08 01:15:31;;;;;;;11.90;10.45;;;;;;;;;;5084880;28;20211;-68
2023/04/08 01:17:59;;;;;;;12.18;10.88;;;;;;;;;;5084752;28;20216;-68
2023/04/08 01:20:26;;;;;;;12.13;10.93;;;;;;;;;;5084967;28;20526;-68
2023/04/08 01:23:02;;;;;;;12.52;10.90;;;;;;;;;;5085016;28;20196;-68
2023/04/08 01:25:30;;;;;;;12.50;11.20;;;;;;;;;;5077798;28;20203;-68
2023/04/08 01:27:58;;;;;;;12.57;11.30;;;;;;;;;;5084884;28;20216;-68
2023/04/08 01:30:25;;;;;;;13.65;11.35;;;;;;;;;;5084882;28;20197;-68
2023/04/08 01:32:53;;;;;;;12.68;11.30;;;;;;;;;;5084385;28;20400;-68
2023/04/08 01:35:20;;;;;;;13.68;10.95;;;;;;;;;;5084566;28;20396;-68
2023/04/08 01:37:47;;;;;;;12.98;11.55;;;;;;;;;;5084694;28;20236;-68
2023/04/08 01:40:13;;;;;;;14.10;12.23;;;;;;;;;;5084444;28;20398;-68
2023/04/08 01:42:40;;;;;;;12.98;10.90;;;;;;;;;;5084480;28;20203;-68
2023/04/08 01:45:09;;;;;;;12.93;11.63;;;;;;;;;;5084555;28;20196;-68
2023/04/08 01:47:36;;;;;;;16.05;12.90;;;;;;;;;;5083697;28;20255;-68
2023/04/08 01:50:02;;;;;;;13.88;12.48;;;;;;;;;;5084368;28;20279;-68
2023/04/08 01:52:29;;;;;;;13.95;12.40;;;;;;;;;;5084388;28;20203;-68
2023/04/08 01:54:55;;;;;;;12.95;11.60;;;;;;;;;;5084490;28;20196;-68
2023/04/08 01:57:23;;;;;;;12.90;11.70;;;;;;;;;;5084316;28;20254;-68
2023/04/08 01:59:51;;;;;;;14.65;12.77;;;;;;;;;;5084333;28;20197;-68
2023/04/08 02:02:20;;;;;;;14.73;12.77;;;;;;;;;;5083955;28;20196;-68
2023/04/08 02:04:46;;;;;;;13.30;11.90;;;;;;;;;;5084117;28;20196;-68
2023/04/08 02:07:12;;;;;;;12.30;11.07;;;;;;;;;;5084087;28;20399;-68
2023/04/08 02:09:39;;;;;;;12.45;11.25;;;;;;;;;;5084132;28;20208;-68
2023/04/08 02:12:05;;;;;;;12.70;11.43;;;;;;;;;;5083797;28;20196;-68
2023/04/08 02:14:32;;;;;;;13.82;12.43;;;;;;;;;;5083891;28;20494;-68
2023/04/08 02:17:01;;;;;;;12.30;10.98;;;;;;;;;;5083653;28;20585;-68
2023/04/08 02:19:30;;;;;;;14.05;11.95;;;;;;;;;;5084031;28;20219;-68
2023/04/08 02:21:59;;;;;;;14.10;12.48;;;;;;;;;;5083529;28;20201;-68
2023/04/08 02:24:26;;;;;;;13.27;11.68;;;;;;;;;;5075899;28;20203;-68
2023/04/08 02:26:53;;;;;;;14.13;12.23;;;;;;;;;;5083815;28;20238;-68
2023/04/08 02:29:19;;;;;;;13.00;11.73;;;;;;;;;;5083460;28;20422;-68
2023/04/08 02:31:47;;;;;;;13.68;12.27;;;;;;;;;;5083564;28;20506;-68
2023/04/08 02:34:14;;;;;;;12.60;11.40;;;;;;;;;;5083636;28;20207;-68
2023/04/08 02:36:44;;;;;;;12.18;10.90;;;;;;;;;;5083640;28;20235;-68
2023/04/08 02:39:11;;;;;;;12.45;11.07;;;;;;;;;;5083381;28;20197;-68
2023/04/08 02:41:37;;;;;;;12.02;10.82;;;;;;;;;;5083231;28;20196;-68
2023/04/08 02:44:03;;;;;;;12.02;10.77;;;;;;;;;;5083439;28;20197;-68
2023/04/08 02:46:30;;;;;;;12.07;10.88;;;;;;;;;;5083684;28;20199;-68
2023/04/08 02:48:56;;;;;;;13.18;11.05;;;;;;;;;;5083302;28;20496;-68
2023/04/08 02:51:22;;;;;;;13.02;11.73;;;;;;;;;;5082878;28;20197;-68
2023/04/08 02:53:50;;;;;;;12.88;11.55;;;;;;;;;;5083378;28;20203;-68
2023/04/08 02:56:16;;;;;;;12.50;10.82;;;;;;;;;;5082893;28;20255;-68
2023/04/08 02:58:42;;;;;;;12.35;11.05;;;;;;;;;;5082322;28;20204;-68
2023/04/08 03:01:09;;;;;;;13.52;12.23;;;;;;;;;;5082854;28;20205;-68
2023/04/08 03:03:35;;;;;;;12.60;11.30;;;;;;;;;;5083053;28;20196;-68
2023/04/08 03:06:01;;;;;;;14.25;11.90;;;;;;;;;;5082648;28;20189;-68
2023/04/08 03:08:27;;;;;;;12.35;11.07;;;;;;;;;;5082948;28;20226;-68
2023/04/08 03:10:55;;;;;;;13.30;11.90;;;;;;;;;;5082630;28;20222;-68
2023/04/08 03:13:21;;;;;;;13.35;11.95;;;;;;;;;;5082583;28;20208;-68
2023/04/08 03:15:48;;;;;;;13.38;11.98;;;;;;;;;;5082823;28;20196;-68
2023/04/08 03:18:14;;;;;;;14.35;12.23;;;;;;;;;;5082575;28;20220;-68
2023/04/08 03:20:40;;;;;;;12.40;11.20;;;;;;;;;;5082661;28;20670;-68
2023/04/08 03:23:06;;;;;;;12.68;11.32;;;;;;;;;;5082606;28;20196;-68
2023/04/08 03:25:33;;;;;;;12.27;11.02;;;;;;;;;;5082493;28;20246;-68
2023/04/08 03:28:00;;;;;;;11.60;10.50;;;;;;;;;;5082687;28;20536;-68
2023/04/08 03:30:26;;;;;;;11.82;10.63;;;;;;;;;;5082621;28;20524;-68
2023/04/08 03:32:53;;;;;;;11.93;10.75;;;;;;;;;;5082538;28;20291;-68
2023/04/08 03:35:19;;;;;;;12.05;10.85;;;;;;;;;;5082439;28;20432;-68
2023/04/08 03:37:45;;;;;;;12.32;11.02;;;;;;;;;;5082330;28;20547;-68
2023/04/08 03:40:12;;;;;;;11.75;10.55;;;;;;;;;;5082099;28;20201;-68
2023/04/08 03:42:38;;;;;;;13.73;11.15;;;;;;;;;;5082325;28;20196;-68
2023/04/08 03:45:07;;;;;;;15.23;10.60;;;;;;;;;;5082373;28;20242;-68
2023/04/08 03:47:33;;;;;;;12.20;10.63;;;;;;;;;;5082402;28;20220;-68
2023/04/08 03:50:00;;;;;;;12.40;11.02;;;;;;;;;;5082294;28;20203;-68
2023/04/08 03:52:26;;;;;;;12.60;11.25;;;;;;;;;;5081899;28;20196;-68
2023/04/08 03:54:52;;;;;;;11.63;10.43;;;;;;;;;;5082199;28;20242;-68
2023/04/08 03:57:18;;;;;;;12.05;10.75;;;;;;;;;;5082190;28;20219;-69
2023/04/08 03:59:45;;;;;;;13.48;11.32;;;;;;;;;;5082213;28;20200;-68
2023/04/08 04:02:12;;;;;;;12.15;10.65;;;;;;;;;;5082216;28;20246;-68
2023/04/08 04:04:38;;;;;;;11.65;10.48;;;;;;;;;;5082034;28;20197;-68
2023/04/08 04:07:05;;;;;;;11.63;10.43;;;;;;;;;;5081880;28;20238;-68
2023/04/08 04:09:31;;;;;;;12.98;11.30;;;;;;;;;;5081780;28;20234;-68
2023/04/08 04:11:57;;;;;;;13.85;12.27;;;;;;;;;;5081727;28;20196;-68
2023/04/08 04:14:23;;;;;;;17.35;12.02;;;;;;;;;;5081832;28;20380;-68
2023/04/08 04:16:49;;;;;;;14.23;11.85;;;;;;;;;;5081988;28;20558;-68
2023/04/08 04:19:17;;;;;;;16.55;12.77;;;;;;;;;;5081779;28;20234;-68
2023/04/08 04:21:43;;;;;;;15.32;12.65;;;;;;;;;;5081634;28;20211;-68
2023/04/08 04:24:10;;;;;;;16.80;13.18;;;;;;;;;;5081935;28;20217;-68
2023/04/08 04:26:36;;;;;;;13.80;12.00;;;;;;;;;;5081829;28;20238;-68
2023/04/08 04:29:02;;;;;;;12.77;11.43;;;;;;;;;;5081880;28;20441;-68
2023/04/08 04:31:29;;;;;;;13.90;11.88;;;;;;;;;;5081409;28;20203;-69
2023/04/08 04:33:55;;;;;;;16.08;12.38;;;;;;;;;;5082087;28;20504;-68
2023/04/08 04:36:23;;;;;;;14.90;12.50;;;;;;;;;;5081798;28;20400;-68
2023/04/08 04:38:50;;;;;;;14.88;12.15;;;;;;;;;;5081576;28;20219;-68
2023/04/08 04:41:16;;;;;;;13.82;10.85;;;;;;;;;;5081357;28;20208;-68
2023/04/08 04:43:42;;;;;;;14.15;11.23;;;;;;;;;;5081746;28;20246;-68
2023/04/08 04:46:09;;;;;;;13.73;11.43;;;;;;;;;;5081559;28;20239;-68
2023/04/08 04:48:35;;;;;;;12.90;10.77;;;;;;;;;;5081626;28;20192;-68
2023/04/08 04:51:02;;;;;;;17.42;13.98;;;;;;;;;;5081327;28;20427;-68
2023/04/08 04:53:31;;;;;;;14.25;11.68;;;;;;;;;;5081725;28;20204;-68
2023/04/08 04:55:57;;;;;;;17.42;13.13;;;;;;;;;;5081581;28;20220;-68
2023/04/08 04:58:23;;;;;;;16.17;12.65;;;;;;;;;;5081345;28;20454;-68
2023/04/08 05:00:49;;;;;;;15.45;12.27;;;;;;;;;;5081259;28;20196;-68
2023/04/08 05:03:16;;;;;;;16.00;13.63;;;;;;;;;;5081324;28;20200;-68
2023/04/08 05:05:42;;;;;;;15.52;11.90;;;;;;;;;;5081786;28;20204;-68
2023/04/08 05:08:08;;;;;;;16.02;12.63;;;;;;;;;;5081476;28;20197;-69
2023/04/08 05:10:36;;;;;;;19.20;14.35;;;;;;;;;;5081211;28;20263;-69
2023/04/08 05:13:02;;;;;;;19.35;13.55;;;;;;;;;;5081284;28;20200;-69
2023/04/08 05:15:28;;;;;;;20.00;14.27;;;;;;;;;;5081319;28;20444;-69
2023/04/08 05:17:54;;;;;;;19.20;14.80;;;;;;;;;;5081099;28;20213;-69
2023/04/08 05:20:21;;;;;;;22.30;14.98;;;;;;;;;;5080843;28;20200;-69
2023/04/08 05:22:47;;;;;;;19.55;14.95;;;;;;;;;;5082685;28;20242;-69
2023/04/08 05:25:13;;;;;;;18.45;13.68;;;;;;;;;;5084840;28;20204;-69
2023/04/08 05:27:41;;;;;;;20.17;15.00;;;;;;;;;;5084707;28;20249;-69
2023/04/08 05:30:08;;;;;;;19.98;14.73;;;;;;;;;;5084907;28;20246;-69
2023/04/08 05:32:35;;;;;;;19.75;13.18;;;;;;;;;;5076259;28;20260;-69
2023/04/08 05:35:02;;;;;;;18.95;13.85;;;;;;;;;;5084576;28;20224;-69
2023/04/08 05:37:28;;;;;;;17.98;14.00;;;;;;;;;;5084659;28;20220;-69
2023/04/08 05:39:54;;;;;;;19.08;14.35;;;;;;;;;;5084463;28;20197;-69
2023/04/08 05:42:20;;;;;;;20.80;14.32;;;;;;;;;;5084360;28;20238;-69
2023/04/08 05:44:48;;;;;;;21.05;14.43;;;;;;;;;;5084465;28;20238;-69
2023/04/08 05:47:15;;;;;;;20.52;14.40;;;;;;;;;;5084213;28;20434;-69
2023/04/08 05:49:41;;;;;;;21.15;14.95;;;;;;;;;;5084565;28;20202;-69
2023/04/08 05:52:07;;;;;;;22.38;15.68;;;;;;;;;;5084039;28;20196;-69
2023/04/08 05:54:33;;;;;;;23.17;15.75;;;;;;;;;;5084284;28;20196;-69
2023/04/08 05:57:00;;;;;;;22.00;16.15;;;;;;;;;;5084781;28;20496;-69
2023/04/08 05:59:26;;;;;;;22.45;15.43;;;;;;;;;;5084155;28;20200;-69
2023/04/08 06:01:55;;;;;;;23.70;16.23;;;;;;;;;;5083869;28;20250;-69
2023/04/08 06:04:21;;;;;;;23.63;15.95;;;;;;;;;;5084162;28;20445;-69
2023/04/08 06:06:48;;;;;;;23.17;16.30;;;;;;;;;;5084270;28;20379;-69
2023/04/08 06:09:14;;;;;;;22.63;16.55;;;;;;;;;;5083931;28;20219;-69
2023/04/08 06:11:40;;;;;;;22.25;16.02;;;;;;;;;;5083769;28;20197;-69
2023/04/08 06:14:06;;;;;;;25.10;17.80;;;;;;;;;;5083758;28;20242;-69
2023/04/08 06:16:34;;;;;;;24.08;17.10;;;;;;;;;;5083737;28;20292;-69
2023/04/08 06:19:01;;;;;;;23.17;16.33;;;;;;;;;;5084032;28;20220;-69
2023/04/08 06:21:28;;;;;;;25.85;17.45;;;;;;;;;;5083873;28;20379;-69
2023/04/08 06:23:54;;;;;;;23.58;16.65;;;;;;;;;;5083828;28;20386;-69
2023/04/08 06:26:21;;;;;;;23.52;16.63;;;;;;;;;;5083876;28;20201;-69
2023/04/08 06:28:47;;;;;;;22.60;17.38;;;;;;;;;;5083581;28;20311;-69
2023/04/08 06:31:13;;;;;;;22.48;17.45;;;;;;;;;;5083151;28;20246;-69
2023/04/08 06:33:40;;;;;;;22.77;17.58;;;;;;;;;;5083742;28;20203;-69
2023/04/08 06:36:08;;;;;;;23.02;17.83;;;;;;;;;;5083567;28;20251;-69
2023/04/08 06:38:34;;;;;;;21.23;16.60;;;;;;;;;;5083457;28;20216;-69
2023/04/08 06:41:03;;;;;;;21.08;15.32;;;;;;;;;;5083167;28;20200;-69
2023/04/08 06:43:30;;;;;;;17.83;14.73;;;;;;;;;;5083351;28;20204;-69
2023/04/08 06:45:56;;;;;;;15.75;13.43;;;;;;;;;;5083344;28;20523;-69
2023/04/08 06:48:27;;;;;;;16.30;13.60;;;;;;;;;;5083575;28;20242;-69
2023/04/08 06:50:53;;;;;;;17.10;13.75;;;;;;;;;;5083318;28;20263;-69
2023/04/08 06:53:22;;;;;;;17.00;14.07;;;;;;;;;;5083213;28;20209;-69
2023/04/08 06:55:48;;;;;;;17.30;13.48;;;;;;;;;;5083229;28;20438;-69
2023/04/08 06:58:14;;;;;;;13.43;12.02;;;;;;;;;;5082718;28;20535;-69
2023/04/08 07:00:41;;;;;;;17.10;13.10;;;;;;;;;;5082900;28;20220;-69
2023/04/08 07:03:07;;;;;;;17.45;13.68;;;;;;;;;;5083094;28;20422;-69
2023/04/08 07:05:35;;;;;;;18.88;14.52;;;;;;;;;;5082980;28;20246;-69
2023/04/08 07:08:01;;;;;;;17.35;13.65;;;;;;;;;;5082963;28;20204;-69
2023/04/08 07:10:29;;;;;;;21.77;16.17;;;;;;;;;;5082578;28;20227;-69
2023/04/08 07:12:56;;;;;;;19.67;15.07;;;;;;;;;;5082584;28;20208;-69
2023/04/08 07:15:22;;;;;;;17.45;14.10;;;;;;;;;;5082697;28;20504;-69
2023/04/08 07:17:49;;;;;;;17.70;13.85;;;;;;;;;;5082548;28;20216;-69
2023/04/08 07:20:15;;;;;;;17.10;13.77;;;;;;;;;;5082531;28;20200;-69
2023/04/08 07:22:41;;;;;;;15.00;13.18;;;;;;;;;;5082395;28;20250;-69
2023/04/08 07:25:08;;;;;;;15.10;12.63;;;;;;;;;;5082713;28;20238;-69
2023/04/08 07:27:36;;;;;;;15.02;12.23;;;;;;;;;;5082632;28;20220;-69
2023/04/08 07:30:02;;;;;;;13.73;12.07;;;;;;;;;;5082774;28;20239;-69
2023/04/08 07:32:28;;;;;;;15.25;12.65;;;;;;;;;;5082614;28;20333;-69
2023/04/08 07:34:54;;;;;;;14.13;12.38;;;;;;;;;;5082703;28;20392;-69
2023/04/08 07:37:21;;;;;;;14.27;12.55;;;;;;;;;;5082502;28;20208;-69
2023/04/08 07:39:47;;;;;;;14.27;12.65;;;;;;;;;;5082329;28;20238;-69
2023/04/08 07:42:13;;;;;;;15.45;13.50;;;;;;;;;;5082303;28;20206;-69
2023/04/08 07:44:41;;;;;;;19.48;14.25;;;;;;;;;;5082305;28;20241;-69
2023/04/08 07:47:07;;;;;;;17.05;14.38;;;;;;;;;;5082445;28;20201;-69
2023/04/08 07:49:33;;;;;;;15.57;13.85;;;;;;;;;;5082366;28;20208;-69
2023/04/08 07:52:00;;;;;;;15.23;12.98;;;;;;;;;;5082244;28;20395;-69
2023/04/08 07:54:26;;;;;;;14.75;13.10;;;;;;;;;;5082249;28;20201;-69
2023/04/08 07:56:52;;;;;;;15.38;13.27;;;;;;;;;;5082296;28;20389;-69
2023/04/08 07:59:19;;;;;;;15.57;13.93;;;;;;;;;;5082144;28;20216;-69
2023/04/08 08:01:46;;;;;;;17.85;13.95;;;;;;;;;;5082128;28;20204;-69
2023/04/08 08:04:12;;;;;;;18.92;14.63;;;;;;;;;;5082204;28;20200;-69
2023/04/08 08:06:39;;;;;;;15.98;14.27;;;;;;;;;;5082045;28;20196;-69
2023/04/08 08:09:05;;;;;;;15.90;14.20;;;;;;;;;;5082073;28;20558;-69
2023/04/08 08:11:31;;;;;;;16.55;13.95;;;;;;;;;;5082195;28;20519;-69
2023/04/08 08:13:58;;;;;;;16.10;14.35;;;;;;;;;;5082211;28;20373;-69
2023/04/08 08:16:27;;;;;;;20.38;14.70;;;;;;;;;;5082499;28;20411;-69
2023/04/08 08:18:55;;;;;;;17.65;14.32;;;;;;;;;;5082291;28;20223;-69
2023/04/08 08:21:21;;;;;;;17.15;14.52;;;;;;;;;;5081860;28;20200;-69
2023/04/08 08:23:47;;;;;;;15.93;14.23;;;;;;;;;;5082261;28;20375;-69
2023/04/08 08:26:13;;;;;;;15.07;13.48;;;;;;;;;;5082179;28;20428;-69
2023/04/08 08:28:40;;;;;;;16.25;13.00;;;;;;;;;;5082134;28;20224;-69
2023/04/08 08:31:06;;;;;;;14.30;12.80;;;;;;;;;;5081879;28;20542;-69
2023/04/08 08:33:33;;;;;;;18.17;13.40;;;;;;;;;;5081978;28;20561;-69
2023/04/08 08:36:00;;;;;;;14.45;12.10;;;;;;;;;;5081993;28;20219;-69
2023/04/08 08:38:27;;;;;;;13.88;12.45;;;;;;;;;;5082043;28;20224;-69
2023/04/08 08:40:54;;;;;;;15.00;13.35;;;;;;;;;;5081665;28;20207;-69
2023/04/08 08:43:20;;;;;;;13.70;12.30;;;;;;;;;;5081814;28;20523;-69
2023/04/08 08:45:46;;;;;;;14.70;13.10;;;;;;;;;;5081721;28;20203;-69
2023/04/08 08:48:13;;;;;;;15.45;12.18;;;;;;;;;;5081859;28;20267;-69
2023/04/08 08:50:39;;;;;;;14.85;13.20;;;;;;;;;;5081443;28;20209;-69
2023/04/08 08:53:07;;;;;;;14.15;12.55;;;;;;;;;;5081877;28;20430;-69
2023/04/08 08:55:33;;;;;;;14.63;12.30;;;;;;;;;;5081738;28;20500;-69
2023/04/08 08:58:00;;;;;;;12.93;11.63;;;;;;;;;;5083666;28;20197;-69
2023/04/08 09:00:33;;;;;;;14.57;12.30;;;;;;;;;;5085462;28;20241;-69
2023/04/08 09:03:13;;;;;;;14.50;12.30;;;;;;;;;;5085492;28;20197;-69
2023/04/08 09:05:46;;;;;;;12.90;11.60;;;;;;;;;;5085627;28;20238;-69
2023/04/08 09:08:24;;;;;;;13.75;11.23;;;;;;;;;;5085584;28;20201;-69
2023/04/08 09:10:50;;;;;;;12.88;11.57;;;;;;;;;;5069157;28;20309;-69
2023/04/08 09:13:16;;;;;;;12.98;11.68;;;;;;;;;;5085235;28;20216;-69
2023/04/08 09:16:00;;;;;;;13.20;11.85;;;;;;;;;;5085058;28;20196;-68
2023/04/08 09:18:26;;;;;;;13.65;12.23;;;;;;;;;;5085241;28;20232;-69
2023/04/08 09:20:52;;;;;;;12.80;11.45;;;;;;;;;;5085192;28;20203;-69
2023/04/08 09:23:19;;;;;;;13.20;11.90;;;;;;;;;;5085365;28;20270;-69
2023/04/08 09:25:46;;;;;;;13.13;11.82;;;;;;;;;;5084962;28;20200;-69
2023/04/08 09:28:18;;;;;;;13.23;11.80;;;;;;;;;;5084852;28;20220;-69
2023/04/08 09:30:45;;;;;;;14.02;11.23;;;;;;;;;;5084909;28;20254;-69
2023/04/08 09:33:11;;;;;;;13.80;11.95;;;;;;;;;;5085215;28;20214;-69
2023/04/08 09:35:37;;;;;;;15.02;12.35;;;;;;;;;;5084811;28;20253;-69
2023/04/08 09:38:04;;;;;;;14.18;12.50;;;;;;;;;;5084883;28;20196;-69
2023/04/08 09:40:33;;;;;;;12.65;11.38;;;;;;;;;;5084376;28;20568;-68
2023/04/08 09:43:04;;;;;;;13.10;11.80;;;;;;;;;;5084643;28;20200;-68
2023/04/08 09:45:31;;;;;;;13.98;11.85;;;;;;;;;;5084671;28;20447;-68
2023/04/08 09:48:12;;;;;;;13.38;11.57;;;;;;;;;;5084579;28;20200;-68
2023/04/08 09:50:42;;;;;;;14.18;11.45;;;;;;;;;;5084224;28;20242;-68
2023/04/08 09:53:09;;;;;;;15.23;12.63;;;;;;;;;;5084383;28;20219;-69
2023/04/08 09:55:36;;;;;;;13.05;10.82;;;;;;;;;;5084523;28;20200;-69
2023/04/08 09:58:08;;;;;;;13.20;10.45;;;;;;;;;;5084541;28;20546;-69
2023/04/08 10:00:37;;;;;;;11.85;10.48;;;;;;;;;;5083994;28;20557;-69
2023/04/08 10:03:07;;;;;;;12.20;10.90;;;;;;;;;;5084082;28;20553;-68
2023/04/08 10:05:36;;;;;;;12.93;11.02;;;;;;;;;;5083954;28;20364;-69
2023/04/08 10:08:03;;;;;;;12.43;10.90;;;;;;;;;;5083771;28;20219;-70
2023/04/08 10:10:29;;;;;;;12.07;10.95;;;;;;;;;;5084293;28;20391;-69
2023/04/08 10:12:56;;;;;;;12.73;10.68;;;;;;;;;;5084054;28;20204;-69
2023/04/08 10:15:25;;;;;;;11.75;10.45;;;;;;;;;;5084060;28;20211;-69
2023/04/08 10:17:51;;;;;;;11.95;10.75;;;;;;;;;;5075896;28;20242;-69
2023/04/08 10:20:36;;;;;;;11.80;10.68;;;;;;;;;;5083695;28;20221;-69
2023/04/08 10:23:02;;;;;;;12.38;10.50;;;;;;;;;;5077208;28;20196;-69
2023/04/08 10:25:30;;;;;;;11.18;10.07;;;;;;;;;;5083779;28;20208;-69
2023/04/08 10:27:56;;;;;;;11.65;10.45;;;;;;;;;;5083658;28;20228;-69
2023/04/08 10:30:40;;;;;;;10.50;9.50;;;;;;;;;;5083531;28;20193;-69
2023/04/08 10:33:09;;;;;;;12.20;10.93;;;;;;;;;;5077556;28;20242;-69
2023/04/08 10:35:36;;;;;;;10.98;9.88;;;;;;;;;;5083718;28;20200;-69
2023/04/08 10:38:03;;;;;;;12.32;11.15;;;;;;;;;;5083471;28;20268;-68
2023/04/08 10:40:35;;;;;;;12.85;11.57;;;;;;;;;;5083175;28;20220;-69
2023/04/08 10:43:02;;;;;;;12.68;11.13;;;;;;;;;;5083352;28;20197;-69
2023/04/08 10:45:28;;;;;;;12.75;10.43;;;;;;;;;;5083173;28;20208;-69
2023/04/08 10:47:56;;;;;;;11.75;10.63;;;;;;;;;;5083462;28;20196;-69
2023/04/08 10:50:22;;;;;;;14.77;11.43;;;;;;;;;;5083176;28;20200;-69
2023/04/08 10:52:49;;;;;;;15.82;11.15;;;;;;;;;;5083218;28;20197;-69
2023/04/08 10:55:17;;;;;;;14.77;10.15;;;;;;;;;;5083151;28;20575;-69
2023/04/08 10:57:43;;;;;;;12.45;11.10;;;;;;;;;;5083049;28;20264;-69
2023/04/08 11:00:10;;;;;;;11.60;10.25;;;;;;;;;;5083243;28;20535;-69
2023/04/08 11:02:37;;;;;;;11.95;10.18;;;;;;;;;;5083077;28;20200;-69
2023/04/08 11:05:06;;;;;;;10.88;9.60;;;;;;;;;;5083141;28;20238;-69
2023/04/08 11:07:33;;;;;;;11.85;10.68;;;;;;;;;;5082809;28;20274;-69
2023/04/08 11:10:02;;;;;;;11.73;10.52;;;;;;;;;;5082802;28;20224;-69
2023/04/08 11:12:28;;;;;;;11.68;9.80;;;;;;;;;;5082444;28;20200;-69
2023/04/08 11:14:55;;;;;;;11.40;10.27;;;;;;;;;;5082962;28;20196;-69
2023/04/08 11:17:21;;;;;;;11.07;9.98;;;;;;;;;;5082734;28;20200;-69
2023/04/08 11:19:48;;;;;;;11.10;9.95;;;;;;;;;;5081794;28;20216;-69
2023/04/08 11:22:15;;;;;;;11.02;9.93;;;;;;;;;;5082462;28;20422;-69
2023/04/08 11:24:43;;;;;;;10.77;9.80;;;;;;;;;;5082458;28;20287;-69
2023/04/08 11:27:09;;;;;;;10.98;9.98;;;;;;;;;;5082591;28;20552;-69
2023/04/08 11:29:35;;;;;;;12.30;10.20;;;;;;;;;;5082522;28;20223;-69
2023/04/08 11:32:02;;;;;;;10.70;9.55;;;;;;;;;;5082469;28;20203;-69
2023/04/08 11:34:28;;;;;;;11.77;9.40;;;;;;;;;;5082521;28;20200;-69
2023/04/08 11:36:57;;;;;;;13.77;9.52;;;;;;;;;;5082185;28;20208;-69
2023/04/08 11:39:25;;;;;;;14.35;9.57;;;;;;;;;;5082268;28;20428;-69
2023/04/08 11:41:52;;;;;;;12.25;8.48;;;;;;;;;;5082385;28;20226;-69
2023/04/08 11:44:18;;;;;;;10.10;8.60;;;;;;;;;;5082544;28;20487;-69
2023/04/08 11:46:53;;;;;;;11.68;8.00;;;;;;;;;;5082337;28;20560;-69
2023/04/08 11:49:20;;;;;;;8.98;8.07;;;;;;;;;;5082393;28;20287;-69
2023/04/08 11:51:56;;;;;;;8.80;7.68;;;;;;;;;;5081911;28;20201;-69
2023/04/08 11:54:28;;;;;;;9.13;7.80;;;;;;;;;;5082347;28;20263;-69
2023/04/08 11:56:54;;;;;;;8.88;8.07;;;;;;;;;;5082195;28;20203;-69
2023/04/08 11:59:21;;;;;;;8.38;7.55;;;;;;;;;;5082052;28;20216;-69
2023/04/08 12:01:47;;;;;;;9.00;8.10;;;;;;;;;;5081687;28;20211;-69
2023/04/08 12:04:13;;;;;;;8.10;7.40;;;;;;;;;;5082271;28;20242;-69
2023/04/08 12:06:42;;;;;;;9.30;8.18;;;;;;;;;;5081625;28;20205;-69
2023/04/08 12:09:08;;;;;;;9.20;8.30;;;;;;;;;;5082004;28;20207;-69
2023/04/08 12:11:36;;;;;;;9.32;8.38;;;;;;;;;;5081913;28;20200;-69
2023/04/08 12:14:02;;;;;;;9.88;8.98;;;;;;;;;;5082389;28;20200;-69
2023/04/08 12:16:28;;;;;;;9.98;8.60;;;;;;;;;;5082007;28;20203;-69
2023/04/08 12:18:55;;;;;;;11.50;8.82;;;;;;;;;;5081639;28;20197;-69
2023/04/08 12:21:21;;;;;;;9.95;8.55;;;;;;;;;;5081657;28;20219;-69
2023/04/08 12:23:47;;;;;;;8.95;8.18;;;;;;;;;;5082057;28;20200;-69
2023/04/08 12:26:13;;;;;;;9.57;8.68;;;;;;;;;;5081978;28;20216;-69
2023/04/08 12:28:41;;;;;;;13.20;9.77;;;;;;;;;;5081857;28;20224;-69
2023/04/08 12:31:07;;;;;;;9.18;8.27;;;;;;;;;;5082076;28;20196;-69
2023/04/08 12:33:34;;;;;;;8.43;7.50;;;;;;;;;;5085748;28;20200;-69
2023/04/08 12:36:00;;;;;;;11.00;8.88;;;;;;;;;;5085734;28;20203;-69
2023/04/08 12:38:26;;;;;;;9.90;8.60;;;;;;;;;;5086000;28;20443;-69
2023/04/08 12:40:53;;;;;;;9.40;8.57;;;;;;;;;;5085482;28;20558;-69
2023/04/08 12:43:19;;;;;;;11.05;8.40;;;;;;;;;;5085712;28;20238;-69
2023/04/08 12:45:47;;;;;;;10.60;9.10;;;;;;;;;;5085502;28;20200;-69
2023/04/08 12:48:14;;;;;;;10.63;9.48;;;;;;;;;;5085965;28;20376;-70
2023/04/08 12:50:40;;;;;;;12.45;10.02;;;;;;;;;;5085395;28;20207;-69
2023/04/08 12:53:07;;;;;;;10.27;9.30;;;;;;;;;;5085737;28;20226;-69
2023/04/08 12:55:33;;;;;;;10.30;9.10;;;;;;;;;;5085552;28;20204;-69
2023/04/08 12:57:59;;;;;;;9.52;8.57;;;;;;;;;;5077354;28;20196;-69
2023/04/08 13:00:26;;;;;;;10.63;9.32;;;;;;;;;;5085178;28;20243;-69
2023/04/08 13:02:53;;;;;;;9.63;8.63;;;;;;;;;;5085468;28;20208;-69
2023/04/08 13:05:19;;;;;;;9.23;8.32;;;;;;;;;;5085430;28;20207;-69
2023/04/08 13:07:46;;;;;;;9.10;8.20;;;;;;;;;;5085350;28;20205;-68
2023/04/08 13:10:12;;;;;;;8.48;7.75;;;;;;;;;;5085237;28;20219;-68
2023/04/08 13:12:39;;;;;;;9.50;8.52;;;;;;;;;;5084833;28;20204;-68
2023/04/08 13:15:06;;;;;;;9.65;8.77;;;;;;;;;;5085054;28;20556;-68
2023/04/08 13:17:32;;;;;;;8.25;7.53;;;;;;;;;;5085127;28;20208;-68
2023/04/08 13:20:00;;;;;;;9.07;8.27;;;;;;;;;;5084970;28;20220;-68
2023/04/08 13:22:26;;;;;;;9.20;8.40;;;;;;;;;;5085001;28;20200;-68
2023/04/08 13:24:53;;;;;;;9.52;8.68;;;;;;;;;;5084874;28;20207;-68
2023/04/08 13:27:19;;;;;;;9.77;8.80;;;;;;;;;;5085364;28;20220;-68
2023/04/08 13:29:45;;;;;;;9.32;8.35;;;;;;;;;;5084793;28;20196;-68
2023/04/08 13:32:11;;;;;;;11.07;9.70;;;;;;;;;;5084727;28;20204;-68
2023/04/08 13:34:38;;;;;;;9.55;8.55;;;;;;;;;;5084940;28;20204;-68
2023/04/08 13:37:05;;;;;;;13.90;9.95;;;;;;;;;;5084835;28;20205;-68
2023/04/08 13:39:31;;;;;;;9.82;8.88;;;;;;;;;;5084626;28;20210;-68
2023/04/08 13:41:58;;;;;;;9.65;8.75;;;;;;;;;;5084381;28;20196;-68
2023/04/08 13:44:24;;;;;;;9.15;8.27;;;;;;;;;;5083719;28;20200;-68
2023/04/08 13:46:50;;;;;;;13.13;9.00;;;;;;;;;;5084504;28;20541;-68
2023/04/08 13:49:17;;;;;;;9.48;8.52;;;;;;;;;;5084846;28;20231;-68
2023/04/08 13:51:43;;;;;;;11.18;9.18;;;;;;;;;;5084391;28;20231;-68
2023/04/08 13:54:11;;;;;;;9.02;8.13;;;;;;;;;;5084592;28;20492;-68
2023/04/08 13:56:37;;;;;;;10.93;9.13;;;;;;;;;;5084479;28;20253;-68
2023/04/08 13:59:04;;;;;;;9.93;8.93;;;;;;;;;;5084376;28;20188;-68
2023/04/08 14:01:30;;;;;;;9.00;8.13;;;;;;;;;;5084083;28;20240;-69
2023/04/08 14:03:56;;;;;;;9.27;8.45;;;;;;;;;;5084123;28;20204;-69
2023/04/08 14:06:23;;;;;;;16.10;9.70;;;;;;;;;;5084487;28;20430;-69
2023/04/08 14:08:49;;;;;;;12.88;9.77;;;;;;;;;;5084460;28;20504;-69
2023/04/08 14:11:17;;;;;;;10.15;9.15;;;;;;;;;;5084073;28;20196;-69
2023/04/08 14:13:43;;;;;;;10.13;8.98;;;;;;;;;;5083888;28;20208;-69
2023/04/08 14:16:09;;;;;;;9.45;8.38;;;;;;;;;;5084330;28;20208;-69
2023/04/08 14:18:36;;;;;;;9.45;8.52;;;;;;;;;;5084155;28;20263;-69
2023/04/08 14:21:04;;;;;;;9.70;8.70;;;;;;;;;;5083701;28;20216;-69